Time;durP1;ratioP1;P1;durP2;ratioP2;P2;SDS_P1;SDS_P2;PMS_P1;PMS_P2;Temp;Humidity;BMP_temperature;BMP_pressure;BME280_temperature;BME280_humidity;BME280_pressure;Samples;Min_cycle;Max_cycle;Signal;HPM_P1;HPM_P2
2023/05/11 00:02:25;;;;;;;0.00;0.00;;;4.80;99.90;;;;;;26008293;22;20003;-50
2023/05/11 00:12:27;;;;;;;0.10;0.00;;;4.80;99.90;;;;;;25965632;22;20321;-60
2023/05/11 00:22:30;;;;;;;0.05;0.00;;;4.80;99.90;;;;;;25965373;22;20493;-49
2023/05/11 00:32:31;;;;;;;0.00;0.00;;;4.80;99.90;;;;;;25964961;22;20069;-60
2023/05/11 00:42:33;;;;;;;0.30;0.00;;;4.70;99.90;;;;;;25965757;22;20015;-48
2023/05/11 00:52:35;;;;;;;0.85;0.00;;;4.70;99.90;;;;;;26007595;22;20007;-59
2023/05/11 01:02:37;;;;;;;0.00;0.00;;;4.60;99.90;;;;;;25964438;22;20504;-61
2023/05/11 01:13:01;;;;;;;0.03;0.00;;;4.70;99.90;;;;;;25937430;22;20007;-48
2023/05/11 01:23:15;;;;;;;0.00;0.00;;;4.70;99.90;;;;;;25979462;22;20366;-49
2023/05/11 01:33:29;;;;;;;0.00;0.00;;;4.70;99.90;;;;;;25986810;22;20008;-47
2023/05/11 01:43:35;;;;;;;0.00;0.00;;;4.60;99.90;;;;;;26008387;22;20004;-48
2023/05/11 01:53:38;;;;;;;0.75;0.00;;;4.70;99.90;;;;;;25961930;22;20004;-49
2023/05/11 02:03:41;;;;;;;0.00;0.00;;;4.60;99.90;;;;;;25970155;22;20004;-46
2023/05/11 02:13:45;;;;;;;0.00;0.00;;;4.60;99.90;;;;;;25969615;22;20004;-48
2023/05/11 02:23:50;;;;;;;1.27;0.00;;;4.60;99.90;;;;;;25942168;22;20011;-49
2023/05/11 02:33:54;;;;;;;0.00;0.00;;;4.50;99.90;;;;;;25942117;22;20500;-59
2023/05/11 02:44:03;;;;;;;0.00;0.00;;;4.50;99.90;;;;;;25967686;22;20065;-48
2023/05/11 02:54:09;;;;;;;0.00;0.00;;;4.50;99.90;;;;;;25940245;22;20046;-59
2023/05/11 03:04:13;;;;;;;0.22;0.00;;;4.50;99.90;;;;;;25983111;22;20007;-45
2023/05/11 03:14:16;;;;;;;0.00;0.00;;;4.50;99.90;;;;;;25940386;22;20004;-44
2023/05/11 03:24:20;;;;;;;0.25;0.00;;;4.40;99.90;;;;;;25940129;22;20004;-47
2023/05/11 03:34:22;;;;;;;1.55;0.00;;;4.40;99.90;;;;;;25939855;22;20312;-48
2023/05/11 03:44:25;;;;;;;0.00;0.00;;;4.40;99.90;;;;;;25938104;22;20035;-50
2023/05/11 03:54:27;;;;;;;0.00;0.00;;;4.40;99.90;;;;;;25966081;22;20034;-47
2023/05/11 04:04:30;;;;;;;0.50;0.00;;;4.40;99.90;;;;;;25965791;22;20012;-45
2023/05/11 04:14:33;;;;;;;0.10;0.00;;;4.40;99.90;;;;;;25938328;22;20003;-50
2023/05/11 04:24:35;;;;;;;0.00;0.00;;;4.50;99.90;;;;;;25938819;22;20007;-59
2023/05/11 04:34:37;;;;;;;1.00;0.00;;;4.50;99.90;;;;;;25965509;22;20004;-47
2023/05/11 04:44:40;;;;;;;0.00;0.00;;;4.40;99.90;;;;;;25937607;22;20335;-49
2023/05/11 04:54:42;;;;;;;0.00;0.00;;;4.40;99.90;;;;;;25937699;22;20000;-49
2023/05/11 05:04:44;;;;;;;0.45;0.00;;;4.40;99.90;;;;;;25942984;22;20333;-47
2023/05/11 05:14:46;;;;;;;0.00;0.00;;;4.40;99.90;;;;;;25972360;22;20003;-60
2023/05/11 05:24:47;;;;;;;0.00;0.00;;;4.50;99.90;;;;;;25945095;22;20011;-45
2023/05/11 05:34:49;;;;;;;0.00;0.00;;;4.50;99.90;;;;;;25971661;22;20003;-47
2023/05/11 05:44:51;;;;;;;0.55;0.00;;;4.60;99.90;;;;;;25944068;22;20015;-47
2023/05/11 05:54:54;;;;;;;0.00;0.00;;;4.70;99.90;;;;;;25943845;22;20065;-49
2023/05/11 06:04:57;;;;;;;0.00;0.00;;;4.80;99.90;;;;;;25970626;22;20009;-45
2023/05/11 06:14:59;;;;;;;0.00;0.00;;;4.80;99.90;;;;;;25942089;22;20008;-46
2023/05/11 06:25:01;;;;;;;0.00;0.00;;;5.00;99.90;;;;;;25942779;22;20487;-48
2023/05/11 06:35:04;;;;;;;0.00;0.00;;;5.00;99.90;;;;;;25941222;22;20000;-59
2023/05/11 06:45:07;;;;;;;0.00;0.00;;;5.10;99.90;;;;;;25941337;22;20339;-50
2023/05/11 06:55:13;;;;;;;0.00;0.00;;;5.20;99.90;;;;;;25982708;22;20070;-49
2023/05/11 07:05:14;;;;;;;0.00;0.00;;;5.10;99.90;;;;;;25940889;22;20077;-47
2023/05/11 07:15:16;;;;;;;0.13;0.05;;;5.10;99.90;;;;;;25967494;22;20003;-47
2023/05/11 07:25:17;;;;;;;1.05;0.00;;;5.00;99.90;;;;;;25966128;22;20007;-60
2023/05/11 07:35:19;;;;;;;0.00;0.00;;;4.90;99.90;;;;;;25965910;22;19999;-49
2023/05/11 07:45:21;;;;;;;0.00;0.00;;;4.80;99.90;;;;;;25966465;22;20000;-59
2023/05/11 07:55:23;;;;;;;0.03;0.00;;;5.00;99.90;;;;;;25964564;22;20012;-46
2023/05/11 08:05:25;;;;;;;0.52;0.00;;;5.20;99.90;;;;;;25966282;22;20101;-60
2023/05/11 08:15:27;;;;;;;0.00;0.00;;;5.30;99.90;;;;;;25966950;22;20086;-47
2023/05/11 08:25:29;;;;;;;0.40;0.00;;;5.20;99.90;;;;;;25965857;22;20014;-48
2023/05/11 08:35:31;;;;;;;0.30;0.00;;;5.20;99.90;;;;;;25968115;22;20004;-45
2023/05/11 08:45:34;;;;;;;0.38;0.00;;;5.20;99.90;;;;;;25973730;22;20007;-60
2023/05/11 08:55:37;;;;;;;0.00;0.00;;;5.30;99.90;;;;;;25973420;22;19999;-49
2023/05/11 09:05:39;;;;;;;0.00;0.00;;;5.40;99.90;;;;;;25972484;22;20012;-59
2023/05/11 09:15:41;;;;;;;0.10;0.10;;;5.50;99.90;;;;;;25971495;22;20003;-59
2023/05/11 09:25:43;;;;;;;0.10;0.00;;;5.60;99.90;;;;;;25972540;22;20004;-59
2023/05/11 09:35:44;;;;;;;0.00;0.00;;;5.70;99.90;;;;;;25971687;22;20004;-49
2023/05/11 09:45:48;;;;;;;0.00;0.00;;;5.80;99.90;;;;;;25970932;22;19999;-47
2023/05/11 09:55:54;;;;;;;0.30;0.00;;;6.00;99.90;;;;;;25971310;22;20011;-50
2023/05/11 10:05:59;;;;;;;0.00;0.00;;;6.10;99.90;;;;;;26011488;22;20512;-59
2023/05/11 10:16:05;;;;;;;0.00;0.00;;;6.20;99.90;;;;;;25970081;22;20029;-59
2023/05/11 10:26:09;;;;;;;0.00;0.00;;;6.30;99.90;;;;;;26012334;22;20450;-49
2023/05/11 10:36:12;;;;;;;0.70;0.00;;;6.50;99.90;;;;;;25968834;22;20000;-58
2023/05/11 10:46:19;;;;;;;0.20;0.00;;;6.50;99.90;;;;;;25941426;22;20011;-58
2023/05/11 10:56:34;;;;;;;0.13;0.00;;;6.40;99.90;;;;;;26010575;22;20061;-50
2023/05/11 11:06:38;;;;;;;0.00;0.00;;;6.30;99.90;;;;;;25965962;22;20007;-50
2023/05/11 11:17:00;;;;;;;0.00;0.00;;;6.50;99.90;;;;;;25967395;22;20426;-46
2023/05/11 11:27:03;;;;;;;0.00;0.00;;;6.90;99.90;;;;;;25968330;22;20000;-58
2023/05/11 11:37:07;;;;;;;4.18;0.00;;;7.00;99.90;;;;;;25966918;22;20000;-48
2023/05/11 11:47:12;;;;;;;0.00;0.00;;;7.30;99.90;;;;;;25965972;22;20012;-48
2023/05/11 11:57:32;;;;;;;0.52;0.00;;;7.40;99.90;;;;;;25966402;22;20014;-50
2023/05/11 12:07:35;;;;;;;0.17;0.10;;;7.30;99.90;;;;;;26007003;22;20036;-47
2023/05/11 12:17:37;;;;;;;0.00;0.00;;;7.20;99.90;;;;;;25938176;22;20076;-50
2023/05/11 12:27:54;;;;;;;0.20;0.00;;;7.40;99.90;;;;;;25965481;22;20007;-48
2023/05/11 12:37:58;;;;;;;0.10;0.00;;;7.40;99.90;;;;;;25966312;22;20011;-49
2023/05/11 12:48:01;;;;;;;0.00;0.00;;;7.90;99.90;;;;;;25964987;22;20459;-47
2023/05/11 12:58:17;;;;;;;0.00;0.00;;;7.80;99.90;;;;;;25964749;22;20011;-50
2023/05/11 13:08:19;;;;;;;0.10;0.00;;;7.80;99.90;;;;;;26005774;22;20004;-50
2023/05/11 13:18:21;;;;;;;0.20;0.00;;;8.10;99.90;;;;;;25937229;22;20004;-49
2023/05/11 13:28:24;;;;;;;0.00;0.00;;;8.20;99.90;;;;;;25970976;22;20004;-50
2023/05/11 13:38:25;;;;;;;0.13;0.00;;;8.20;99.90;;;;;;25971350;22;20065;-59
2023/05/11 13:48:27;;;;;;;0.70;0.00;;;8.30;99.90;;;;;;25970884;22;20022;-50
2023/05/11 13:58:29;;;;;;;0.00;0.00;;;8.40;99.90;;;;;;25970956;22;20042;-51
2023/05/11 14:08:31;;;;;;;0.70;0.10;;;8.10;99.90;;;;;;25969009;22;20050;-48
2023/05/11 14:18:33;;;;;;;0.57;0.00;;;7.90;99.90;;;;;;25969809;22;20460;-49
2023/05/11 14:28:34;;;;;;;0.10;0.00;;;8.10;99.90;;;;;;25969683;22;20060;-52
2023/05/11 14:38:37;;;;;;;0.00;0.00;;;7.90;99.90;;;;;;25969329;22;20007;-51
2023/05/11 14:48:38;;;;;;;0.20;0.00;;;7.80;99.90;;;;;;25968269;22;20065;-50
2023/05/11 14:58:40;;;;;;;0.40;0.00;;;7.70;99.90;;;;;;25968128;22;20030;-58
2023/05/11 15:08:42;;;;;;;0.08;0.00;;;7.60;99.90;;;;;;25967221;22;20000;-50
2023/05/11 15:18:44;;;;;;;0.03;0.00;;;7.50;99.90;;;;;;25967235;22;20011;-58
2023/05/11 15:28:45;;;;;;;0.90;0.05;;;7.50;99.90;;;;;;25939887;22;20351;-52
2023/05/11 15:38:47;;;;;;;0.10;0.00;;;7.30;99.90;;;;;;25966709;22;20003;-51
2023/05/11 15:48:49;;;;;;;0.00;0.00;;;7.30;99.90;;;;;;25965754;22;20053;-49
2023/05/11 15:58:51;;;;;;;0.00;0.00;;;7.20;99.90;;;;;;25965504;22;20003;-46
2023/05/11 16:08:52;;;;;;;0.25;0.08;;;7.30;99.90;;;;;;25964413;22;20000;-49
2023/05/11 16:18:54;;;;;;;0.40;0.10;;;7.60;99.90;;;;;;25964551;22;20439;-60
2023/05/11 16:28:56;;;;;;;0.05;0.00;;;7.40;99.90;;;;;;25965017;22;20345;-50
2023/05/11 16:38:57;;;;;;;0.35;0.00;;;7.30;99.90;;;;;;25964225;22;20004;-50
2023/05/11 16:49:00;;;;;;;0.55;0.00;;;7.10;99.90;;;;;;25964553;22;20011;-49
2023/05/11 16:59:01;;;;;;;0.35;0.10;;;6.90;99.90;;;;;;25968789;22;20004;-50
2023/05/11 17:09:03;;;;;;;0.00;0.00;;;6.70;99.90;;;;;;25972483;22;20003;-51
2023/05/11 17:19:05;;;;;;;0.00;0.00;;;6.50;99.90;;;;;;25943775;22;19999;-50
2023/05/11 17:29:08;;;;;;;0.00;0.00;;;6.40;99.90;;;;;;25971744;22;20061;-52
2023/05/11 17:39:10;;;;;;;0.00;0.00;;;6.40;99.90;;;;;;25970757;22;20378;-50
2023/05/11 17:49:12;;;;;;;0.00;0.00;;;6.30;99.90;;;;;;25971067;22;20011;-50
2023/05/11 17:59:14;;;;;;;0.00;0.00;;;6.10;99.90;;;;;;25970998;22;20004;-51
2023/05/11 18:09:17;;;;;;;0.40;0.00;;;6.00;99.90;;;;;;25970716;22;20003;-50
2023/05/11 18:19:19;;;;;;;0.00;0.00;;;5.80;99.90;;;;;;25969772;22;20004;-46
2023/05/11 18:29:21;;;;;;;0.03;0.00;;;5.80;99.90;;;;;;25969654;22;20030;-48
2023/05/11 18:39:23;;;;;;;0.00;0.00;;;5.70;99.90;;;;;;25968183;22;20009;-60
2023/05/11 18:49:25;;;;;;;0.00;0.00;;;5.60;99.90;;;;;;25968545;22;20016;-46
2023/05/11 18:59:27;;;;;;;0.00;0.00;;;5.60;99.90;;;;;;25968458;22;20004;-49
2023/05/11 19:09:28;;;;;;;0.00;0.00;;;5.50;99.90;;;;;;25967295;22;20007;-48
2023/05/11 19:19:30;;;;;;;0.30;0.00;;;5.40;99.90;;;;;;25967361;22;20004;-49
2023/05/11 19:29:32;;;;;;;1.20;0.00;;;5.40;99.90;;;;;;25967400;22;20046;-47
2023/05/11 19:39:33;;;;;;;1.42;0.00;;;5.30;99.90;;;;;;25966107;22;20000;-61
2023/05/11 19:49:35;;;;;;;0.00;0.00;;;5.30;99.90;;;;;;25965992;22;20077;-47
2023/05/11 19:59:37;;;;;;;0.00;0.00;;;5.30;99.90;;;;;;25966180;22;20003;-48
2023/05/11 20:09:39;;;;;;;0.00;0.00;;;5.30;99.90;;;;;;25965810;22;20014;-45
2023/05/11 20:19:41;;;;;;;0.57;0.00;;;5.30;99.90;;;;;;25939774;22;20069;-59
2023/05/11 20:29:43;;;;;;;0.00;0.00;;;5.20;99.90;;;;;;25966641;22;20065;-48
2023/05/11 20:39:45;;;;;;;0.10;0.00;;;5.10;99.90;;;;;;25975195;22;20050;-45
2023/05/11 20:49:46;;;;;;;0.00;0.00;;;5.10;99.90;;;;;;25973088;22;20041;-59
2023/05/11 20:59:48;;;;;;;0.30;0.00;;;5.10;99.90;;;;;;25971255;22;20019;-59
2023/05/11 21:09:49;;;;;;;0.00;0.00;;;5.10;99.90;;;;;;25973030;22;20083;-60
2023/05/11 21:19:54;;;;;;;0.00;0.00;;;5.10;99.90;;;;;;25972694;22;20007;-47
2023/05/11 21:29:56;;;;;;;1.70;0.00;;;5.10;99.90;;;;;;25971628;22;20008;-49
2023/05/11 21:39:58;;;;;;;0.03;0.00;;;5.10;99.90;;;;;;25971503;22;20004;-59
2023/05/11 21:50:00;;;;;;;0.00;0.00;;;5.00;99.90;;;;;;25971205;22;20441;-44
2023/05/11 22:00:02;;;;;;;0.00;0.00;;;5.10;99.90;;;;;;25970787;22;19999;-51
2023/05/11 22:10:08;;;;;;;0.40;0.00;;;5.00;99.90;;;;;;26013093;22;20369;-46
2023/05/11 22:20:09;;;;;;;0.00;0.00;;;5.00;99.90;;;;;;25970151;22;20019;-59
2023/05/11 22:30:11;;;;;;;0.55;0.00;;;5.00;99.90;;;;;;25970981;22;20300;-49
2023/05/11 22:40:13;;;;;;;0.00;0.00;;;4.90;99.90;;;;;;25969362;22;20082;-59
2023/05/11 22:50:15;;;;;;;0.75;0.00;;;5.00;99.90;;;;;;25968913;22;20019;-59
2023/05/11 23:00:17;;;;;;;0.00;0.00;;;5.00;99.90;;;;;;25968425;22;20083;-61
2023/05/11 23:10:18;;;;;;;0.00;0.00;;;4.90;99.90;;;;;;25968200;22;19996;-60
2023/05/11 23:20:21;;;;;;;0.00;0.00;;;4.90;99.90;;;;;;25967633;22;20447;-60
2023/05/11 23:30:22;;;;;;;0.00;0.00;;;4.80;99.90;;;;;;25967135;22;20003;-59
2023/05/11 23:40:27;;;;;;;0.00;0.00;;;4.80;99.90;;;;;;25966753;22;20077;-45
2023/05/11 23:50:28;;;;;;;0.03;0.00;;;4.80;99.90;;;;;;25965907;22;20015;-45
